Terminal Aerodrome Forecast
Issued by NWS

Home | Current Version | Previous Version | Graphics & Text | Print | Product List | Glossary On
Versions: 1 2 3 4 5 6 7 8 9 10 11 12 13 14 15 16
000
FTUS42 KMHX 220540
TAFISO
TAF
KISO 220540Z 2206/2306 22004KT P6SM BKN120
     FM220900 22004KT 3SM BR BKN005
     FM221200 25005KT P6SM BKN009
     FM221300 25005KT P6SM BKN060
      AMD LTD TO CLD VIS AND WIND=

USA.gov is the U.S. government's official web portal to all federal, state and local government web resources and services.